METAR Portugal - 12 Dec 2017 - 2348 UTC - RocketRoute WX - rrwx.com
LPFR 122330Z 36004KT 330V040 CAVOK 11/03 Q1025 LPPT 122330Z 30006KT CAVOK 11/07 Q1026 LPMA 122330Z 01017G31KT 9999 SCT016 17/10 Q1027 LPPD 122330Z 33004KT 290V050 9999 BKN018 17/14 Q1033 LPPR 122330Z 13008KT 9000 FEW025 BKN040 09/07 Q1025 LPPS 122330Z 05010KT 9999 SCT013 FEW016TCU 17/09 Q1028 LPAZ   LPST  

RocketRoute WX - rrwx.com weather for pilots